Time;durP1;ratioP1;P1;durP2;ratioP2;P2;SDS_P1;SDS_P2;PMS_P1;PMS_P2;Temp;Humidity;BMP_temperature;BMP_pressure;BME280_temperature;BME280_humidity;BME280_pressure;Samples;Min_cycle;Max_cycle;Signal;HPM_P1;HPM_P2
2022/01/05 00:02:18;;;;;;;4.47;1.80;;;3.50;99.90;;;;;;5027134;28;20021;-66
2022/01/05 00:04:45;;;;;;;2.78;1.23;;;3.40;99.90;;;;;;5039525;28;20429;-66
2022/01/05 00:07:12;;;;;;;1.38;1.25;;;3.40;99.90;;;;;;5031641;28;20456;-66
2022/01/05 00:09:37;;;;;;;1.25;1.10;;;3.40;99.90;;;;;;5035527;28;20485;-66
2022/01/05 00:12:04;;;;;;;1.13;1.05;;;3.30;99.90;;;;;;5027663;28;20084;-66
2022/01/05 00:14:29;;;;;;;0.80;0.80;;;3.30;99.90;;;;;;5018980;28;20088;-67
2022/01/05 00:16:55;;;;;;;1.60;1.00;;;3.30;99.90;;;;;;5033865;28;20641;-67
2022/01/05 00:19:21;;;;;;;1.25;1.15;;;3.30;99.90;;;;;;5025727;28;20388;-67
2022/01/05 00:21:48;;;;;;;0.75;0.75;;;3.30;99.90;;;;;;5031376;28;20026;-66
2022/01/05 00:24:14;;;;;;;0.70;0.70;;;3.30;99.90;;;;;;5029442;28;20563;-67
2022/01/05 00:26:40;;;;;;;6.88;2.35;;;3.30;99.90;;;;;;5029425;28;20064;-67
2022/01/05 00:29:06;;;;;;;2.47;1.42;;;3.30;99.90;;;;;;5032209;28;20445;-67
2022/01/05 00:31:31;;;;;;;0.60;0.60;;;3.30;99.90;;;;;;5032001;28;20501;-67
2022/01/05 00:33:57;;;;;;;2.17;1.15;;;3.30;99.90;;;;;;5027040;28;20040;-67
2022/01/05 00:36:23;;;;;;;2.20;1.25;;;3.30;99.90;;;;;;5032599;28;20036;-67
2022/01/05 00:38:48;;;;;;;3.70;1.45;;;3.20;99.90;;;;;;5030245;28;20783;-67
2022/01/05 00:41:14;;;;;;;3.70;1.88;;;3.20;99.90;;;;;;5023275;28;20030;-67
2022/01/05 00:43:40;;;;;;;0.73;0.73;;;3.20;99.90;;;;;;5023408;28;20029;-67
2022/01/05 00:46:06;;;;;;;1.67;1.27;;;3.20;99.90;;;;;;5023933;28;20060;-67
2022/01/05 00:48:34;;;;;;;1.88;1.17;;;3.10;99.90;;;;;;5033240;28;20025;-67
2022/01/05 00:51:02;;;;;;;2.28;1.00;;;3.20;99.90;;;;;;5026652;28;20036;-67
2022/01/05 00:53:28;;;;;;;1.20;1.05;;;3.20;99.90;;;;;;5025519;28;20038;-67
2022/01/05 00:55:54;;;;;;;1.70;1.40;;;3.20;99.90;;;;;;5027652;28;20025;-67
2022/01/05 00:58:19;;;;;;;1.98;1.23;;;3.20;99.90;;;;;;5025780;28;20018;-67
2022/01/05 01:00:45;;;;;;;2.53;1.55;;;3.10;99.90;;;;;;5030641;28;20413;-67
2022/01/05 01:03:11;;;;;;;2.47;1.50;;;3.20;99.90;;;;;;5032971;28;20018;-67
2022/01/05 01:05:36;;;;;;;5.63;1.88;;;3.20;99.90;;;;;;5033086;28;20040;-67
2022/01/05 01:08:02;;;;;;;3.30;1.77;;;3.10;99.90;;;;;;5032194;28;20032;-68
2022/01/05 01:10:28;;;;;;;2.30;1.33;;;3.10;99.90;;;;;;5028625;28;20053;-67
2022/01/05 01:12:53;;;;;;;3.92;1.60;;;3.10;99.90;;;;;;5027228;28;20543;-68
2022/01/05 01:15:19;;;;;;;0.93;0.90;;;3.10;99.90;;;;;;5028902;28;20026;-67
2022/01/05 01:17:45;;;;;;;5.53;1.73;;;3.10;99.90;;;;;;5037111;28;20120;-67
2022/01/05 01:20:11;;;;;;;4.00;2.30;;;3.10;99.90;;;;;;5035889;28;20017;-67
2022/01/05 01:22:36;;;;;;;6.63;1.95;;;3.00;99.90;;;;;;5033014;28;20083;-67
2022/01/05 01:25:04;;;;;;;3.25;2.03;;;3.00;99.90;;;;;;5031194;28;20030;-67
2022/01/05 01:27:30;;;;;;;3.05;1.35;;;3.00;99.90;;;;;;5029189;28;20033;-68
2022/01/05 01:29:56;;;;;;;2.33;1.40;;;3.10;99.90;;;;;;5028645;28;20489;-68
2022/01/05 01:32:21;;;;;;;2.35;1.38;;;3.00;99.90;;;;;;5031801;28;20025;-68
2022/01/05 01:34:47;;;;;;;16.75;2.35;;;3.00;99.90;;;;;;5028256;28;20096;-68
2022/01/05 01:37:13;;;;;;;4.90;3.03;;;3.10;99.90;;;;;;5030012;28;20021;-68
2022/01/05 01:39:38;;;;;;;3.03;1.58;;;3.00;99.90;;;;;;5024172;28;20112;-69
2022/01/05 01:42:04;;;;;;;4.93;2.08;;;3.00;99.90;;;;;;5034038;28;20753;-68
2022/01/05 01:44:30;;;;;;;1.90;1.02;;;3.00;99.90;;;;;;5029020;28;20060;-68
2022/01/05 01:46:55;;;;;;;3.80;1.55;;;3.00;99.90;;;;;;5023049;28;20534;-68
2022/01/05 01:49:21;;;;;;;3.22;1.75;;;3.00;99.90;;;;;;5022836;28;20052;-68
2022/01/05 01:51:46;;;;;;;3.08;1.63;;;3.00;99.90;;;;;;5028321;28;20026;-68
2022/01/05 01:54:13;;;;;;;1.48;1.15;;;2.90;99.90;;;;;;5034941;28;20104;-68
2022/01/05 01:56:39;;;;;;;1.95;1.38;;;2.90;99.90;;;;;;5034353;28;20653;-68
2022/01/05 01:59:05;;;;;;;3.05;1.67;;;2.90;99.90;;;;;;5033595;28;20104;-68
2022/01/05 02:01:30;;;;;;;2.67;1.88;;;2.90;99.90;;;;;;5034378;28;20468;-68
2022/01/05 02:03:56;;;;;;;5.57;2.50;;;2.80;99.90;;;;;;5039640;28;20022;-68
2022/01/05 02:06:22;;;;;;;3.83;1.75;;;2.80;99.90;;;;;;5036490;28;20044;-68
2022/01/05 02:08:49;;;;;;;3.15;1.77;;;2.80;99.90;;;;;;5040383;28;20048;-68
2022/01/05 02:11:14;;;;;;;3.03;1.95;;;2.80;99.90;;;;;;5041440;28;20085;-68
2022/01/05 02:13:40;;;;;;;5.57;3.25;;;2.70;99.90;;;;;;5033820;28;20172;-67
2022/01/05 02:16:07;;;;;;;3.80;2.45;;;2.70;99.90;;;;;;5037161;28;20235;-67
2022/01/05 02:21:05;;;;;;;5.57;2.30;;;2.60;99.90;;;;;;5039800;28;20020;-67
2022/01/05 02:23:32;;;;;;;7.97;3.80;;;2.70;99.90;;;;;;5035016;28;20033;-67
2022/01/05 02:25:58;;;;;;;5.38;2.28;;;2.60;99.90;;;;;;5033188;28;20104;-67
2022/01/05 02:28:24;;;;;;;6.28;2.33;;;2.60;99.90;;;;;;5024205;28;20064;-67
2022/01/05 02:30:53;;;;;;;4.82;2.35;;;2.60;99.90;;;;;;5037319;28;20052;-67
2022/01/05 02:33:20;;;;;;;8.20;2.25;;;2.60;99.90;;;;;;5023975;28;20025;-68
2022/01/05 02:35:45;;;;;;;2.58;1.95;;;2.60;99.90;;;;;;5038239;28;20715;-67
2022/01/05 02:38:11;;;;;;;2.97;1.83;;;2.50;99.90;;;;;;5027148;28;20113;-67
2022/01/05 02:40:38;;;;;;;1.88;1.27;;;2.60;99.90;;;;;;5034148;28;20029;-67
2022/01/05 02:43:03;;;;;;;6.60;2.08;;;2.50;99.90;;;;;;5033630;28;20033;-67
2022/01/05 02:45:29;;;;;;;1.20;1.10;;;2.60;99.90;;;;;;5038419;28;20091;-67
2022/01/05 02:47:55;;;;;;;2.90;1.40;;;2.60;99.90;;;;;;5030300;28;20034;-67
2022/01/05 02:50:21;;;;;;;4.38;2.38;;;2.60;99.90;;;;;;5041815;28;20128;-67
2022/01/05 02:52:47;;;;;;;3.20;1.95;;;2.60;99.90;;;;;;5036806;28;20116;-67
2022/01/05 02:55:12;;;;;;;4.18;2.33;;;2.60;99.90;;;;;;5038553;28;20040;-67
2022/01/05 02:57:38;;;;;;;4.93;2.15;;;2.60;99.90;;;;;;5037556;28;20032;-67
2022/01/05 03:00:06;;;;;;;13.70;2.78;;;2.60;99.90;;;;;;5036218;28;20025;-67
2022/01/05 03:02:32;;;;;;;11.18;3.78;;;2.60;99.90;;;;;;5035614;28;20032;-67
2022/01/05 03:04:57;;;;;;;2.72;1.33;;;2.60;99.90;;;;;;5038419;28;20029;-67
2022/01/05 03:07:23;;;;;;;7.45;2.53;;;2.70;99.90;;;;;;5031941;28;20044;-67
2022/01/05 03:09:49;;;;;;;2.08;1.33;;;2.60;99.90;;;;;;5042168;28;20107;-67
2022/01/05 03:12:15;;;;;;;8.35;2.65;;;2.60;99.90;;;;;;5032546;28;20040;-67
2022/01/05 03:14:40;;;;;;;16.95;5.45;;;2.60;99.90;;;;;;5035109;28;20512;-67
2022/01/05 03:17:06;;;;;;;5.45;3.05;;;2.60;99.90;;;;;;5036979;28;20036;-68
2022/01/05 03:19:31;;;;;;;2.70;1.38;;;2.70;99.90;;;;;;5029593;28;20021;-68
2022/01/05 03:21:57;;;;;;;10.82;4.55;;;2.70;99.90;;;;;;5036463;28;20052;-67
2022/01/05 03:24:23;;;;;;;12.65;4.97;;;2.80;99.90;;;;;;5037412;28;20028;-67
2022/01/05 03:26:48;;;;;;;4.65;2.35;;;2.80;99.90;;;;;;5029034;28;20053;-67
2022/01/05 03:29:14;;;;;;;5.95;2.83;;;2.80;99.90;;;;;;5033193;28;20033;-68
2022/01/05 03:31:39;;;;;;;14.27;6.35;;;2.80;99.90;;;;;;5033696;28;20080;-67
2022/01/05 03:34:06;;;;;;;4.95;2.35;;;2.90;99.90;;;;;;5030628;28;20025;-67
2022/01/05 03:36:32;;;;;;;5.13;2.38;;;2.90;99.90;;;;;;5033491;28;20029;-67
2022/01/05 03:38:57;;;;;;;11.25;3.35;;;2.90;99.90;;;;;;5031523;28;20852;-67
2022/01/05 03:41:23;;;;;;;8.73;3.58;;;2.80;99.90;;;;;;5032449;28;20139;-67
2022/01/05 03:43:49;;;;;;;4.43;1.73;;;2.90;99.90;;;;;;5031668;28;20116;-67
2022/01/05 03:46:15;;;;;;;14.43;3.95;;;2.90;99.90;;;;;;5039230;28;20240;-67
2022/01/05 03:48:41;;;;;;;2.92;1.83;;;2.80;99.90;;;;;;5030627;28;20042;-67
2022/01/05 03:51:06;;;;;;;4.93;2.33;;;2.80;99.90;;;;;;5035216;28;20037;-67
2022/01/05 03:53:32;;;;;;;4.00;2.67;;;2.80;99.90;;;;;;5041472;28;20125;-68
2022/01/05 03:55:58;;;;;;;11.68;4.72;;;2.70;99.90;;;;;;5033016;28;20029;-68
2022/01/05 03:58:23;;;;;;;10.20;3.75;;;2.70;99.90;;;;;;5041547;28;20037;-67
2022/01/05 04:00:51;;;;;;;10.02;3.92;;;2.70;99.90;;;;;;5037368;28;20025;-67
2022/01/05 04:03:18;;;;;;;4.75;2.17;;;2.70;99.90;;;;;;5032273;28;20025;-67
2022/01/05 04:05:44;;;;;;;7.13;3.03;;;2.70;99.90;;;;;;5030783;28;20555;-67
2022/01/05 04:08:10;;;;;;;15.45;6.00;;;2.70;99.90;;;;;;5037269;28;20120;-67
2022/01/05 04:10:36;;;;;;;5.65;3.13;;;2.60;99.90;;;;;;5037248;28;20033;-67
2022/01/05 04:13:02;;;;;;;7.88;2.95;;;2.60;99.90;;;;;;5035547;28;20021;-67
2022/01/05 04:15:28;;;;;;;11.50;3.97;;;2.50;99.90;;;;;;5030070;28;20081;-67
2022/01/05 04:17:54;;;;;;;2.92;1.90;;;2.50;99.90;;;;;;5036437;28;20436;-67
2022/01/05 04:20:19;;;;;;;2.38;1.73;;;2.50;99.90;;;;;;5030808;28;20028;-67
2022/01/05 04:22:46;;;;;;;2.38;1.05;;;2.40;99.90;;;;;;5034160;28;20114;-67
2022/01/05 04:25:13;;;;;;;9.77;2.05;;;2.40;99.90;;;;;;5036906;28;20470;-67
2022/01/05 04:27:38;;;;;;;17.65;5.25;;;2.40;99.90;;;;;;5037920;28;20027;-67
2022/01/05 04:30:06;;;;;;;12.35;3.58;;;2.30;99.90;;;;;;5031049;28;20038;-67
2022/01/05 04:32:32;;;;;;;3.90;1.92;;;2.30;99.90;;;;;;5034099;28;20108;-67
2022/01/05 04:34:58;;;;;;;7.63;2.25;;;2.10;99.90;;;;;;5028761;28;20109;-67
2022/01/05 04:37:23;;;;;;;1.75;1.50;;;2.20;99.90;;;;;;5031727;28;20029;-67
2022/01/05 04:39:50;;;;;;;0.80;0.80;;;2.20;99.90;;;;;;5034619;28;20398;-67
2022/01/05 04:42:15;;;;;;;7.85;2.28;;;2.10;99.90;;;;;;5035573;28;20301;-67
2022/01/05 04:44:41;;;;;;;4.93;2.38;;;2.10;99.90;;;;;;5034480;28;20050;-67
2022/01/05 04:47:08;;;;;;;4.05;1.45;;;1.90;99.90;;;;;;5034243;28;20044;-67
2022/01/05 04:49:34;;;;;;;7.82;2.20;;;2.00;99.90;;;;;;5041185;28;20025;-67
2022/01/05 04:51:59;;;;;;;11.45;1.88;;;1.90;99.90;;;;;;5034566;28;20037;-67
2022/01/05 04:54:25;;;;;;;1.00;0.90;;;1.90;99.90;;;;;;5037920;28;20032;-67
2022/01/05 04:56:51;;;;;;;6.30;2.58;;;1.90;99.90;;;;;;5039204;28;20020;-67
2022/01/05 04:59:17;;;;;;;4.22;1.45;;;1.90;99.90;;;;;;5034082;28;20022;-67
2022/01/05 05:01:43;;;;;;;2.72;1.13;;;;;;;;;;5043352;28;20025;-67
2022/01/05 05:04:09;;;;;;;1.00;0.90;;;1.90;99.90;;;;;;5039183;28;20025;-67
2022/01/05 05:06:34;;;;;;;2.47;1.55;;;1.70;99.90;;;;;;5037736;28;20112;-67
2022/01/05 05:09:00;;;;;;;2.92;1.67;;;1.80;99.90;;;;;;5030927;28;20108;-67
2022/01/05 05:11:26;;;;;;;2.80;2.10;;;1.60;99.90;;;;;;5033376;28;20035;-68
2022/01/05 05:13:51;;;;;;;8.95;1.88;;;1.70;99.90;;;;;;5037899;28;20060;-67
2022/01/05 05:16:17;;;;;;;9.65;2.58;;;1.60;99.90;;;;;;5035308;28;20021;-67
2022/01/05 05:18:42;;;;;;;3.85;1.73;;;1.60;99.90;;;;;;5039218;28;20033;-67
2022/01/05 05:21:08;;;;;;;2.60;1.27;;;1.60;99.90;;;;;;5040836;28;20436;-67
2022/01/05 05:23:34;;;;;;;0.75;0.70;;;1.50;99.90;;;;;;5036809;28;20020;-67
2022/01/05 05:26:00;;;;;;;2.88;1.50;;;1.60;99.90;;;;;;5044543;28;20029;-67
2022/01/05 05:28:25;;;;;;;2.67;1.33;;;1.60;99.90;;;;;;5031176;28;20103;-67
2022/01/05 05:30:51;;;;;;;3.35;1.25;;;1.50;99.90;;;;;;5037724;28;20056;-67
2022/01/05 05:33:16;;;;;;;1.67;1.23;;;1.50;99.90;;;;;;5031413;28;20125;-67
2022/01/05 05:35:42;;;;;;;2.88;1.88;;;1.40;99.90;;;;;;5031332;28;20025;-67
2022/01/05 05:38:10;;;;;;;10.80;1.65;;;1.40;99.90;;;;;;5030335;28;20682;-67
2022/01/05 05:40:36;;;;;;;2.10;1.40;;;1.40;99.90;;;;;;5035518;28;20034;-67
2022/01/05 05:43:02;;;;;;;10.70;2.50;;;1.50;99.90;;;;;;5027524;28;20018;-67
2022/01/05 05:45:27;;;;;;;23.38;1.38;;;1.50;99.90;;;;;;5033332;28;20056;-67
2022/01/05 05:47:53;;;;;;;0.70;0.70;;;1.40;99.90;;;;;;5033458;28;20082;-67
2022/01/05 05:50:19;;;;;;;2.72;1.50;;;1.40;99.90;;;;;;5034008;28;20056;-67
2022/01/05 05:52:45;;;;;;;3.92;1.60;;;1.40;99.90;;;;;;5030182;28;20029;-67
2022/01/05 05:55:11;;;;;;;10.45;2.70;;;1.40;99.90;;;;;;5031708;28;20021;-67
2022/01/05 05:57:36;;;;;;;1.83;1.13;;;1.50;99.90;;;;;;5030151;28;20029;-67
2022/01/05 06:00:05;;;;;;;1.65;1.08;;;1.50;99.90;;;;;;5034610;28;20014;-67
2022/01/05 06:02:30;;;;;;;5.57;1.83;;;1.50;99.90;;;;;;5031470;28;20025;-67
2022/01/05 06:04:56;;;;;;;4.80;1.75;;;1.40;99.90;;;;;;5034721;28;20036;-67
2022/01/05 06:07:22;;;;;;;1.98;1.17;;;1.50;99.90;;;;;;5027181;28;20022;-67
2022/01/05 06:09:47;;;;;;;5.15;2.15;;;1.50;99.90;;;;;;5034145;28;20329;-67
2022/01/05 06:12:13;;;;;;;3.03;1.17;;;1.60;99.90;;;;;;5029103;28;20036;-67
2022/01/05 06:14:38;;;;;;;5.75;1.10;;;1.60;99.90;;;;;;5033332;28;20084;-67
2022/01/05 06:17:04;;;;;;;8.20;1.55;;;1.60;99.90;;;;;;5026956;28;20441;-69
2022/01/05 06:19:29;;;;;;;0.70;0.70;;;1.60;99.90;;;;;;5035020;28;20067;-67
2022/01/05 06:21:55;;;;;;;3.95;1.75;;;1.50;99.90;;;;;;5036138;28;20455;-68
2022/01/05 06:24:21;;;;;;;4.85;1.35;;;1.60;99.90;;;;;;5032314;28;20508;-67
2022/01/05 06:26:46;;;;;;;2.17;1.27;;;1.60;99.90;;;;;;5034138;28;20034;-67
2022/01/05 06:29:15;;;;;;;1.00;0.90;;;1.60;99.90;;;;;;5037783;28;20517;-67
2022/01/05 06:31:41;;;;;;;1.67;1.35;;;1.60;99.90;;;;;;5026065;28;20077;-67
2022/01/05 06:34:07;;;;;;;4.88;2.03;;;1.50;99.90;;;;;;5041286;28;20086;-67
2022/01/05 06:36:33;;;;;;;3.70;1.48;;;1.50;99.90;;;;;;5034784;28;20045;-67
2022/01/05 06:38:58;;;;;;;0.70;0.70;;;1.60;99.90;;;;;;5037493;28;20032;-67
2022/01/05 06:41:24;;;;;;;1.35;1.00;;;1.60;99.90;;;;;;5038942;28;20018;-67
2022/01/05 06:43:50;;;;;;;3.35;1.75;;;1.60;99.90;;;;;;5036204;28;20037;-67
2022/01/05 06:46:16;;;;;;;8.60;1.75;;;1.60;99.90;;;;;;5036184;28;20489;-67
2022/01/05 06:48:41;;;;;;;2.03;1.20;;;1.60;99.90;;;;;;5033165;28;20519;-67
2022/01/05 06:51:07;;;;;;;0.80;0.80;;;1.60;99.90;;;;;;5033562;28;20044;-67
2022/01/05 06:53:33;;;;;;;1.45;1.15;;;1.80;99.90;;;;;;5035305;28;20021;-67
2022/01/05 06:55:58;;;;;;;3.70;1.65;;;1.90;99.90;;;;;;5037241;28;20021;-67
2022/01/05 06:58:24;;;;;;;0.70;0.70;;;1.90;99.90;;;;;;5035769;28;20098;-67
2022/01/05 07:00:49;;;;;;;3.80;1.65;;;2.00;99.90;;;;;;5033871;28;20033;-67
2022/01/05 07:03:15;;;;;;;1.63;1.10;;;2.00;99.90;;;;;;5035221;28;20029;-67
2022/01/05 07:05:40;;;;;;;6.85;2.30;;;2.00;99.90;;;;;;5032495;28;20029;-67
2022/01/05 07:08:07;;;;;;;3.72;1.65;;;2.00;99.90;;;;;;5034122;28;20727;-67
2022/01/05 07:10:33;;;;;;;2.47;1.80;;;2.10;99.90;;;;;;5032895;28;20025;-67
2022/01/05 07:12:58;;;;;;;5.40;1.55;;;2.10;99.90;;;;;;5033573;28;20032;-67
2022/01/05 07:15:25;;;;;;;4.38;1.45;;;2.10;99.90;;;;;;5037476;28;20021;-67
2022/01/05 07:17:51;;;;;;;1.00;0.82;;;2.20;99.90;;;;;;5027227;28;20056;-67
2022/01/05 07:20:17;;;;;;;3.78;1.20;;;2.20;99.90;;;;;;5034815;28;20104;-67
2022/01/05 07:22:43;;;;;;;1.60;0.95;;;2.20;99.90;;;;;;5034639;28;20021;-67
2022/01/05 07:25:09;;;;;;;8.63;2.08;;;2.30;99.90;;;;;;5018413;28;20037;-67
2022/01/05 07:27:35;;;;;;;4.18;1.45;;;2.30;99.90;;;;;;5028778;28;20085;-67
2022/01/05 07:30:02;;;;;;;10.95;1.67;;;2.30;99.90;;;;;;5032744;28;20036;-68
2022/01/05 07:32:28;;;;;;;4.18;1.38;;;2.30;99.90;;;;;;5026453;28;20029;-67
2022/01/05 07:34:54;;;;;;;8.82;2.10;;;2.30;99.90;;;;;;5025090;28;20029;-67
2022/01/05 07:37:20;;;;;;;2.45;1.10;;;2.30;99.90;;;;;;5025721;28;20021;-67
2022/01/05 07:39:46;;;;;;;5.03;2.05;;;2.40;99.90;;;;;;5025080;28;20076;-67
2022/01/05 07:42:11;;;;;;;0.80;0.80;;;2.40;99.90;;;;;;5027688;28;20023;-68
2022/01/05 07:44:38;;;;;;;1.00;1.00;;;2.30;99.90;;;;;;5029216;28;20037;-67
2022/01/05 07:47:04;;;;;;;1.15;0.90;;;2.20;99.90;;;;;;5031494;28;20026;-67
2022/01/05 07:49:30;;;;;;;2.60;1.42;;;2.30;99.90;;;;;;5019564;28;20060;-67
2022/01/05 07:51:55;;;;;;;3.88;1.70;;;2.50;99.90;;;;;;4930486;28;20432;-67
2022/01/05 07:54:21;;;;;;;11.10;1.42;;;2.50;99.90;;;;;;5015927;28;20025;-67
2022/01/05 07:56:47;;;;;;;3.55;1.88;;;2.50;99.90;;;;;;5026539;28;20159;-68
2022/01/05 07:59:12;;;;;;;4.97;2.13;;;2.50;99.90;;;;;;5027128;28;20028;-67
2022/01/05 08:01:38;;;;;;;6.40;1.58;;;2.50;99.90;;;;;;5033503;28;20106;-67
2022/01/05 08:04:04;;;;;;;2.58;1.35;;;2.60;99.90;;;;;;5030991;28;20027;-67
2022/01/05 08:09:05;;;;;;;25.67;3.17;;;2.60;99.90;;;;;;3078366;26;20099;-67
2022/01/05 08:11:31;;;;;;;2.20;1.40;;;2.60;99.90;;;;;;4979962;28;20031;-66
2022/01/05 08:13:56;;;;;;;3.92;1.73;;;2.60;99.90;;;;;;4982026;28;20619;-66
2022/01/05 08:16:22;;;;;;;2.13;1.23;;;2.60;99.90;;;;;;4984355;28;20026;-66
2022/01/05 08:18:49;;;;;;;2.25;1.30;;;2.60;99.90;;;;;;4977928;28;20034;-67
2022/01/05 08:21:16;;;;;;;1.15;1.00;;;2.60;99.90;;;;;;4986786;28;20029;-67
2022/01/05 08:23:42;;;;;;;2.10;1.42;;;2.60;99.90;;;;;;4979858;28;20027;-66
2022/01/05 08:26:07;;;;;;;4.90;1.58;;;2.80;99.90;;;;;;4982771;28;20372;-66
2022/01/05 08:28:34;;;;;;;0.80;0.80;;;2.90;99.90;;;;;;4988517;28;20425;-67
2022/01/05 08:31:00;;;;;;;5.22;2.35;;;2.80;99.90;;;;;;4984391;28;20054;-66
2022/01/05 08:33:26;;;;;;;2.65;1.45;;;2.90;99.90;;;;;;4987726;28;20101;-66
2022/01/05 08:35:51;;;;;;;4.57;1.90;;;2.90;99.90;;;;;;4986156;28;20030;-66
2022/01/05 08:38:17;;;;;;;5.10;1.40;;;2.90;99.90;;;;;;4987662;28;20437;-66
2022/01/05 08:40:43;;;;;;;5.05;2.03;;;3.00;99.90;;;;;;4988235;28;20054;-66
2022/01/05 08:43:12;;;;;;;2.55;1.33;;;3.00;99.90;;;;;;4987415;28;20026;-66
2022/01/05 08:45:39;;;;;;;2.88;1.70;;;3.20;99.90;;;;;;4989009;28;20060;-66
2022/01/05 08:48:05;;;;;;;4.78;1.10;;;3.10;99.90;;;;;;5005288;28;20490;-67
2022/01/05 08:50:33;;;;;;;4.30;1.52;;;3.30;99.90;;;;;;4987404;28;20046;-67
2022/01/05 08:53:00;;;;;;;6.47;2.90;;;3.30;99.90;;;;;;4978765;28;20022;-67
2022/01/05 08:55:32;;;;;;;5.30;1.98;;;3.20;99.90;;;;;;4980865;28;20043;-67
2022/01/05 08:57:58;;;;;;;7.43;2.50;;;3.20;99.90;;;;;;4981703;28;20058;-65
2022/01/05 09:00:23;;;;;;;3.80;1.45;;;3.30;99.90;;;;;;4984502;28;20490;-65
2022/01/05 09:02:50;;;;;;;3.05;1.45;;;3.30;99.90;;;;;;4978719;28;20109;-65
2022/01/05 09:05:16;;;;;;;2.55;1.65;;;3.30;99.90;;;;;;4981311;28;20046;-66
2022/01/05 09:07:42;;;;;;;3.00;1.42;;;3.30;99.90;;;;;;4982068;28;20035;-65
2022/01/05 09:10:08;;;;;;;6.93;2.53;;;3.30;99.90;;;;;;4980483;28;20054;-65
2022/01/05 09:12:34;;;;;;;5.70;2.00;;;3.30;99.90;;;;;;4987583;28;20594;-66
2022/01/05 09:15:00;;;;;;;4.50;2.17;;;3.30;99.90;;;;;;4984641;28;20046;-65
2022/01/05 09:17:27;;;;;;;2.72;1.48;;;3.40;99.90;;;;;;4980825;28;20029;-66
2022/01/05 09:19:53;;;;;;;4.68;1.90;;;3.50;99.90;;;;;;4999441;28;20038;-66
2022/01/05 09:22:20;;;;;;;3.22;1.42;;;3.50;99.90;;;;;;4984436;28;20033;-66
2022/01/05 09:24:46;;;;;;;7.28;2.63;;;3.40;99.90;;;;;;4978915;28;20019;-64
2022/01/05 09:27:12;;;;;;;4.15;1.85;;;3.40;99.90;;;;;;4982319;28;20035;-65
2022/01/05 09:29:39;;;;;;;10.30;3.45;;;3.40;99.90;;;;;;4979520;28;20037;-65
2022/01/05 09:32:08;;;;;;;1.40;1.00;;;3.40;99.90;;;;;;4983941;28;20019;-65
2022/01/05 09:34:38;;;;;;;5.15;2.10;;;3.40;99.90;;;;;;4986643;28;20305;-65
2022/01/05 09:37:27;;;;;;;1.65;1.25;;;3.40;99.90;;;;;;4982984;28;21280;-65
2022/01/05 09:42:38;;;;;;;6.35;2.55;;;3.50;99.90;;;;;;4985830;28;20046;-65
2022/01/05 09:45:27;;;;;;;5.38;1.73;;;3.50;99.90;;;;;;4987572;28;20497;-66
2022/01/05 09:48:17;;;;;;;3.72;1.63;;;3.50;99.90;;;;;;4983026;28;20057;-66
2022/01/05 09:50:52;;;;;;;3.42;1.60;;;3.40;99.90;;;;;;4985656;28;20030;-66
2022/01/05 09:53:19;;;;;;;2.10;1.08;;;3.50;99.90;;;;;;4984666;28;20553;-65
2022/01/05 09:55:47;;;;;;;4.47;2.15;;;3.50;99.90;;;;;;4986831;28;20030;-66
2022/01/05 09:58:13;;;;;;;4.82;2.58;;;3.50;99.90;;;;;;4980427;28;20022;-66
2022/01/05 10:00:40;;;;;;;8.35;3.55;;;3.40;99.90;;;;;;4980865;28;20037;-66
2022/01/05 10:03:07;;;;;;;3.92;2.63;;;3.40;99.90;;;;;;4987235;28;20109;-65
2022/01/05 10:05:33;;;;;;;4.63;2.22;;;3.50;99.90;;;;;;4981795;28;20401;-66
2022/01/05 10:07:58;;;;;;;4.38;2.22;;;3.50;99.90;;;;;;4988787;28;20022;-65
2022/01/05 10:10:24;;;;;;;8.20;3.70;;;3.60;99.90;;;;;;4977192;28;20049;-65
2022/01/05 10:12:50;;;;;;;6.28;1.80;;;3.60;99.90;;;;;;4984755;28;20548;-65
2022/01/05 10:15:16;;;;;;;1.65;1.17;;;3.50;99.90;;;;;;4983886;28;20038;-65
2022/01/05 10:17:42;;;;;;;10.50;3.78;;;3.50;99.90;;;;;;4981255;28;20118;-65
2022/01/05 10:20:10;;;;;;;9.15;3.35;;;3.40;99.90;;;;;;4982025;28;20106;-66
2022/01/05 10:22:41;;;;;;;14.52;5.03;;;3.30;99.90;;;;;;4990152;28;20445;-65
2022/01/05 10:25:06;;;;;;;11.60;2.80;;;3.30;99.90;;;;;;4983813;28;20029;-65
2022/01/05 10:27:33;;;;;;;4.38;2.35;;;3.30;99.90;;;;;;4986389;28;20024;-65
2022/01/05 10:30:04;;;;;;;4.15;1.90;;;3.40;99.90;;;;;;4983022;28;20049;-65
2022/01/05 10:32:33;;;;;;;2.53;1.35;;;3.30;99.90;;;;;;4986084;28;20018;-64
2022/01/05 10:35:02;;;;;;;11.10;2.20;;;3.10;99.90;;;;;;4983412;28;20026;-64
2022/01/05 10:37:28;;;;;;;4.60;1.92;;;3.10;99.90;;;;;;4982994;28;20042;-64
2022/01/05 10:40:08;;;;;;;13.07;2.55;;;3.10;99.90;;;;;;4985935;28;20027;-64
2022/01/05 10:42:34;;;;;;;;;;;3.00;99.90;;;;;;4987518;28;20054;-65
2022/01/05 10:45:02;;;;;;;3.67;2.15;;;2.90;99.90;;;;;;4982883;28;19906;-65
2022/01/05 10:47:28;;;;;;;9.93;2.97;;;2.90;99.90;;;;;;4983534;28;20018;-65
2022/01/05 10:49:54;;;;;;;6.20;3.17;;;2.90;99.90;;;;;;4984810;28;20037;-65
2022/01/05 10:52:32;;;;;;;5.22;1.77;;;3.00;99.90;;;;;;4981919;28;20022;-65
2022/01/05 10:55:13;;;;;;;1.27;1.00;;;3.00;99.90;;;;;;4989742;28;20038;-66
2022/01/05 10:57:56;;;;;;;16.40;4.95;;;3.20;99.90;;;;;;4982570;28;20023;-65
2022/01/05 11:00:41;;;;;;;9.38;3.00;;;3.20;99.90;;;;;;4981954;28;20089;-65
2022/01/05 11:03:23;;;;;;;7.43;2.63;;;3.30;99.90;;;;;;4984988;28;20022;-65
2022/01/05 11:06:08;;;;;;;4.72;2.40;;;3.20;99.90;;;;;;4982954;28;20445;-65
2022/01/05 11:08:49;;;;;;;8.07;2.78;;;3.30;99.90;;;;;;4974751;28;20051;-65
2022/01/05 11:11:37;;;;;;;2.17;1.35;;;3.30;99.90;;;;;;4987575;28;20030;-66
2022/01/05 11:14:07;;;;;;;11.23;2.78;;;3.30;99.90;;;;;;4993964;28;20030;-66
2022/01/05 11:16:33;;;;;;;4.03;1.70;;;3.30;99.90;;;;;;4981303;28;20058;-66
2022/01/05 11:19:18;;;;;;;18.75;2.35;;;3.30;99.90;;;;;;4974115;28;20041;-66
2022/01/05 11:22:04;;;;;;;4.35;2.08;;;3.20;99.90;;;;;;4972808;28;20074;-67
2022/01/05 11:24:48;;;;;;;9.75;3.08;;;3.20;99.90;;;;;;4972437;28;20019;-66
2022/01/05 11:27:26;;;;;;;9.52;4.13;;;3.20;99.90;;;;;;4976624;28;20080;-66
2022/01/05 11:29:53;;;;;;;15.85;4.57;;;3.20;99.90;;;;;;4975494;28;20022;-66
2022/01/05 11:32:24;;;;;;;11.35;4.28;;;3.10;99.90;;;;;;4979051;28;20034;-66
2022/01/05 11:34:51;;;;;;;10.98;2.70;;;3.00;99.90;;;;;;4975341;28;20062;-65
2022/01/05 11:37:17;;;;;;;6.72;2.85;;;2.90;99.90;;;;;;4972842;28;21233;-64
2022/01/05 11:39:46;;;;;;;3.75;1.98;;;2.80;99.90;;;;;;4973198;28;20475;-65
2022/01/05 11:42:15;;;;;;;21.40;3.87;;;2.80;99.90;;;;;;4975565;28;20594;-65
2022/01/05 11:44:50;;;;;;;4.78;2.08;;;2.70;99.90;;;;;;4978656;28;20042;-65
2022/01/05 11:47:23;;;;;;;5.68;2.10;;;2.70;99.90;;;;;;4986944;28;20026;-65
2022/01/05 11:49:49;;;;;;;3.30;1.60;;;2.70;99.90;;;;;;4984258;28;20729;-65
2022/01/05 11:52:15;;;;;;;16.90;5.43;;;2.80;99.90;;;;;;4979056;28;20454;-65
2022/01/05 11:55:01;;;;;;;3.50;1.67;;;2.90;99.90;;;;;;4993210;28;20496;-66
2022/01/05 11:57:26;;;;;;;12.50;3.80;;;3.00;99.90;;;;;;4977198;28;20030;-65
2022/01/05 12:00:18;;;;;;;4.53;2.45;;;3.00;99.90;;;;;;4977351;28;20030;-65
2022/01/05 12:02:44;;;;;;;2.90;1.83;;;3.10;99.90;;;;;;4976441;28;20498;-66
2022/01/05 12:05:10;;;;;;;11.38;2.78;;;3.10;99.90;;;;;;4979534;28;20030;-65
2022/01/05 12:07:45;;;;;;;8.13;3.80;;;3.10;99.90;;;;;;4981414;28;20026;-65
2022/01/05 12:12:55;;;;;;;8.18;3.78;;;3.00;99.90;;;;;;4974900;28;20034;-66
2022/01/05 12:15:39;;;;;;;2.33;1.38;;;3.00;99.90;;;;;;4988219;28;20080;-66
2022/01/05 12:18:05;;;;;;;3.70;1.80;;;2.90;99.90;;;;;;4983076;28;20478;-66
2022/01/05 12:20:35;;;;;;;2.17;1.30;;;3.00;99.90;;;;;;4980897;28;20122;-65
2022/01/05 12:23:24;;;;;;;7.03;3.72;;;3.00;99.90;;;;;;4983470;28;20061;-65
2022/01/05 12:26:05;;;;;;;3.78;2.03;;;3.10;99.90;;;;;;4984392;28;20027;-65
2022/01/05 12:28:37;;;;;;;3.15;1.85;;;3.10;99.90;;;;;;4982745;28;20053;-66
2022/01/05 12:31:04;;;;;;;4.47;1.88;;;3.10;99.90;;;;;;4984710;28;20023;-66
2022/01/05 12:33:49;;;;;;;9.20;3.33;;;3.10;99.90;;;;;;4983445;28;20030;-66
2022/01/05 12:36:36;;;;;;;3.40;1.73;;;3.20;99.90;;;;;;4979703;28;20030;-66
2022/01/05 12:39:06;;;;;;;3.00;1.77;;;3.20;99.90;;;;;;4977618;28;20035;-66
2022/01/05 12:41:43;;;;;;;9.10;2.53;;;3.20;99.90;;;;;;4982577;28;20558;-65
2022/01/05 12:44:13;;;;;;;9.43;4.03;;;3.30;99.90;;;;;;4987679;28;20019;-66
2022/01/05 12:46:43;;;;;;;2.40;1.20;;;3.20;99.90;;;;;;4972452;28;20490;-65
2022/01/05 12:49:15;;;;;;;4.53;2.63;;;3.20;99.90;;;;;;4973676;28;20522;-65
2022/01/05 12:51:53;;;;;;;9.75;4.07;;;3.20;99.90;;;;;;4975139;28;20027;-65
2022/01/05 12:54:25;;;;;;;3.10;1.50;;;3.20;99.90;;;;;;4982209;28;20030;-66
2022/01/05 12:56:59;;;;;;;6.03;1.92;;;3.30;99.90;;;;;;4980916;28;20549;-65
2022/01/05 12:59:29;;;;;;;1.92;1.50;;;3.30;99.90;;;;;;4975895;28;20073;-65
2022/01/05 13:01:57;;;;;;;8.23;2.77;;;3.30;99.90;;;;;;4981324;28;20389;-66
2022/01/05 13:04:24;;;;;;;8.65;2.58;;;3.40;99.90;;;;;;4983373;28;20018;-65
2022/01/05 13:06:52;;;;;;;12.65;5.65;;;3.40;99.90;;;;;;4976299;28;20031;-65
2022/01/05 13:09:33;;;;;;;5.63;1.88;;;3.50;99.90;;;;;;4987141;28;20053;-66